createdAt,value
2018-07-03T00:01:38.961Z,20.31
2018-07-03T00:04:08.281Z,20.29
2018-07-03T00:06:37.601Z,20.29
2018-07-03T00:09:09.448Z,20.25
2018-07-03T00:11:38.798Z,20.28
2018-07-03T00:14:08.070Z,20.23
2018-07-03T00:16:42.609Z,20.40
2018-07-03T00:19:11.861Z,20.47
2018-07-03T00:21:40.934Z,20.42
2018-07-03T00:24:10.288Z,20.31
2018-07-03T00:26:39.532Z,20.23
2018-07-03T00:29:08.890Z,20.15
2018-07-03T00:31:38.214Z,20.08
2018-07-03T00:34:07.619Z,20.02
2018-07-03T00:36:36.903Z,19.98
2018-07-03T00:39:08.769Z,20.00
2018-07-03T00:41:38.073Z,20.01
2018-07-03T00:44:07.361Z,19.98
2018-07-03T00:46:36.657Z,20.00
2018-07-03T00:49:06.041Z,19.90
2018-07-03T00:51:35.262Z,19.85
2018-07-03T00:54:04.611Z,19.70
2018-07-03T00:56:33.848Z,19.62
2018-07-03T00:59:03.257Z,19.54
2018-07-03T01:01:32.535Z,19.44
2018-07-03T01:04:01.876Z,19.35
2018-07-03T01:06:31.389Z,19.27
2018-07-03T01:09:01.558Z,19.23
2018-07-03T01:11:31.029Z,19.21
2018-07-03T01:14:00.323Z,19.24
2018-07-03T01:16:29.623Z,19.22
2018-07-03T01:18:59.004Z,19.26
2018-07-03T01:21:28.267Z,19.14
2018-07-03T01:23:57.709Z,19.05
2018-07-03T01:26:26.982Z,19.01
2018-07-03T01:28:56.373Z,18.92
2018-07-03T01:31:25.685Z,18.82
2018-07-03T01:33:54.972Z,18.71
2018-07-03T01:36:24.285Z,18.60
2018-07-03T01:38:53.557Z,18.50
2018-07-03T01:41:22.795Z,18.43
2018-07-03T01:43:52.343Z,18.36
2018-07-03T01:46:21.686Z,18.37
2018-07-03T01:48:50.918Z,18.27
2018-07-03T01:51:20.195Z,18.24
2018-07-03T01:53:49.470Z,18.16
2018-07-03T01:56:18.757Z,18.14
2018-07-03T01:58:47.995Z,18.06
2018-07-03T02:01:17.374Z,18.03
2018-07-03T02:03:46.684Z,18.00
2018-07-03T02:06:15.933Z,17.95
2018-07-03T02:08:45.305Z,18.00
2018-07-03T02:11:14.535Z,17.99
2018-07-03T02:13:43.778Z,17.93
2018-07-03T02:16:13.113Z,17.92
2018-07-03T02:18:42.341Z,17.88
2018-07-03T02:21:11.602Z,17.86
2018-07-03T02:23:40.964Z,17.85
2018-07-03T02:26:10.207Z,17.78
2018-07-03T02:28:39.478Z,17.82
2018-07-03T02:31:08.712Z,17.80
2018-07-03T02:33:37.984Z,17.87
2018-07-03T02:36:07.319Z,17.82
2018-07-03T02:38:36.639Z,17.85
2018-07-03T02:41:05.941Z,17.86
2018-07-03T02:43:35.267Z,17.83
2018-07-03T02:46:04.917Z,17.89
2018-07-03T02:48:34.191Z,17.87
2018-07-03T02:51:03.485Z,17.80
2018-07-03T02:53:32.821Z,17.81
2018-07-03T02:56:02.189Z,17.75
2018-07-03T02:58:31.439Z,17.75
2018-07-03T03:01:00.705Z,17.69
2018-07-03T03:03:29.999Z,17.64
2018-07-03T03:05:59.300Z,17.66
2018-07-03T03:08:28.750Z,17.73
2018-07-03T03:10:58.037Z,17.68
2018-07-03T03:13:27.495Z,17.54
2018-07-03T03:15:57.125Z,17.53
2018-07-03T03:18:26.474Z,17.61
2018-07-03T03:20:55.838Z,17.51
2018-07-03T03:23:25.353Z,17.49
2018-07-03T03:25:54.784Z,17.52
2018-07-03T03:28:24.149Z,17.50
2018-07-03T03:30:53.888Z,17.59
2018-07-03T03:33:23.127Z,17.57
2018-07-03T03:35:52.405Z,17.53
2018-07-03T03:38:21.731Z,17.56
2018-07-03T03:40:51.021Z,17.51
2018-07-03T03:43:20.255Z,17.52
2018-07-03T03:45:49.584Z,17.43
2018-07-03T03:48:18.990Z,17.41
2018-07-03T03:50:48.293Z,17.38
2018-07-03T03:53:17.593Z,17.42
2018-07-03T03:55:46.908Z,17.40
2018-07-03T03:58:16.198Z,17.42
2018-07-03T04:00:45.511Z,17.39
2018-07-03T04:03:14.810Z,17.44
2018-07-03T04:05:44.130Z,17.46
2018-07-03T04:08:13.451Z,17.61
2018-07-03T04:10:42.838Z,17.53
2018-07-03T04:13:12.104Z,17.55
2018-07-03T04:15:41.452Z,17.55
2018-07-03T04:18:10.683Z,17.62
2018-07-03T04:20:39.968Z,17.63
2018-07-03T04:23:09.281Z,18.21
2018-07-03T04:25:38.599Z,19.66
2018-07-03T04:28:07.991Z,20.77
2018-07-03T04:30:37.377Z,20.84
2018-07-03T04:33:06.788Z,20.98
2018-07-03T04:35:35.906Z,20.53
2018-07-03T04:38:05.185Z,20.18
2018-07-03T04:40:34.477Z,19.66
2018-07-03T04:43:03.724Z,19.55
2018-07-03T04:45:33.090Z,19.69
2018-07-03T04:48:02.364Z,19.47
2018-07-03T04:50:31.647Z,19.35
2018-07-03T04:53:00.879Z,19.32
2018-07-03T04:55:30.193Z,19.36
2018-07-03T04:57:59.629Z,19.36
2018-07-03T05:00:29.281Z,19.47
2018-07-03T05:02:58.590Z,19.59
2018-07-03T05:05:28.218Z,19.56
2018-07-03T05:07:57.617Z,19.73
2018-07-03T05:10:27.105Z,19.86
2018-07-03T05:12:56.165Z,19.98
2018-07-03T05:15:25.637Z,20.18
2018-07-03T05:17:54.956Z,20.27
2018-07-03T05:20:24.268Z,20.31
2018-07-03T05:22:53.511Z,20.59
2018-07-03T05:25:22.897Z,20.73
2018-07-03T05:27:52.182Z,20.81
2018-07-03T05:30:21.633Z,20.94
2018-07-03T05:32:50.952Z,21.13
2018-07-03T05:35:20.253Z,21.42
2018-07-03T05:37:49.549Z,21.35
2018-07-03T05:40:18.893Z,21.90
2018-07-03T05:42:48.171Z,22.15
2018-07-03T05:45:17.540Z,22.38
2018-07-03T05:47:46.883Z,22.52
2018-07-03T05:50:17.331Z,22.95
2018-07-03T05:52:46.630Z,23.21
2018-07-03T05:55:16.017Z,23.48
2018-07-03T05:57:45.293Z,23.74
2018-07-03T06:00:14.626Z,23.84
2018-07-03T06:02:43.964Z,24.20
2018-07-03T06:05:13.244Z,24.10
2018-07-03T06:07:42.488Z,24.54
2018-07-03T06:10:11.897Z,24.61
2018-07-03T06:12:41.152Z,24.89
2018-07-03T06:15:10.684Z,24.74
2018-07-03T06:17:39.918Z,24.49
2018-07-03T06:20:09.728Z,24.94
2018-07-03T06:22:39.055Z,24.56
2018-07-03T06:25:08.263Z,25.40
2018-07-03T06:27:37.591Z,25.58
2018-07-03T06:30:07.433Z,25.98
2018-07-03T06:32:36.713Z,25.92
2018-07-03T06:35:06.001Z,26.11
2018-07-03T06:37:35.379Z,25.74
2018-07-03T06:40:04.776Z,26.32
2018-07-03T06:42:34.131Z,26.39
2018-07-03T06:45:03.409Z,26.83
2018-07-03T06:47:33.006Z,26.80
2018-07-03T06:50:02.115Z,26.45
2018-07-03T06:52:31.497Z,26.45
2018-07-03T06:55:00.760Z,26.20
2018-07-03T06:57:30.152Z,26.40
2018-07-03T06:59:59.443Z,25.90
2018-07-03T07:02:28.872Z,26.36
2018-07-03T07:04:58.198Z,26.78
2018-07-03T07:07:27.684Z,27.04
2018-07-03T07:09:57.042Z,27.08
2018-07-03T07:12:26.703Z,26.62
2018-07-03T07:14:56.033Z,27.21
2018-07-03T07:17:25.350Z,26.96
2018-07-03T07:19:54.755Z,26.44
2018-07-03T07:22:24.037Z,26.61
2018-07-03T07:24:53.346Z,26.73
2018-07-03T07:27:22.799Z,27.18
2018-07-03T07:29:52.102Z,27.88
2018-07-03T07:32:21.399Z,27.63
2018-07-03T07:34:50.703Z,28.58
2018-07-03T07:37:19.959Z,28.70
2018-07-03T07:39:49.250Z,28.95
2018-07-03T07:42:18.738Z,28.86
2018-07-03T07:44:48.069Z,29.54
2018-07-03T07:47:17.440Z,29.72
2018-07-03T07:49:46.818Z,30.00
2018-07-03T07:52:15.969Z,29.90
2018-07-03T07:54:45.355Z,29.83
2018-07-03T07:57:14.673Z,30.05
2018-07-03T07:59:43.936Z,30.32
2018-07-03T08:02:13.292Z,29.89
2018-07-03T08:04:42.577Z,30.44
2018-07-03T08:07:11.837Z,31.06
2018-07-03T08:09:41.154Z,31.02
2018-07-03T08:12:10.670Z,30.29
2018-07-03T08:14:40.800Z,30.95
2018-07-03T08:17:10.097Z,30.63
2018-07-03T08:19:39.353Z,30.93
2018-07-03T08:22:08.713Z,31.27
2018-07-03T08:24:38.862Z,31.87
2018-07-03T08:27:08.198Z,31.73
2018-07-03T08:29:37.432Z,31.27
2018-07-03T08:32:06.948Z,31.21
2018-07-03T08:34:36.217Z,31.28
2018-07-03T08:37:05.537Z,31.57
2018-07-03T08:39:34.783Z,32.24
2018-07-03T08:42:04.173Z,32.60
2018-07-03T08:44:33.505Z,32.66
2018-07-03T08:47:02.778Z,32.10
2018-07-03T08:49:32.076Z,31.39
2018-07-03T08:52:01.440Z,32.50
2018-07-03T08:54:30.821Z,31.86
2018-07-03T08:57:00.098Z,32.99
2018-07-03T08:59:29.449Z,31.71
2018-07-03T09:01:58.847Z,31.70
2018-07-03T09:04:28.237Z,33.21
2018-07-03T09:06:57.638Z,32.62
2018-07-03T09:09:26.988Z,32.75
2018-07-03T09:11:56.298Z,31.26
2018-07-03T09:14:25.799Z,30.76
2018-07-03T09:16:55.171Z,31.53
2018-07-03T09:19:24.520Z,30.94
2018-07-03T09:21:53.775Z,30.57
2018-07-03T09:24:23.118Z,30.76
2018-07-03T09:26:52.473Z,31.19
2018-07-03T09:29:21.737Z,30.72
2018-07-03T09:31:51.109Z,31.14
2018-07-03T09:34:20.470Z,31.40
2018-07-03T09:36:49.778Z,31.25
2018-07-03T09:39:19.054Z,30.94
2018-07-03T09:41:48.329Z,31.09
2018-07-03T09:44:17.747Z,31.74
2018-07-03T09:46:47.083Z,31.68
2018-07-03T09:49:16.361Z,31.66
2018-07-03T09:51:45.648Z,32.17
2018-07-03T09:54:15.030Z,32.65
2018-07-03T09:56:44.311Z,32.79
2018-07-03T09:59:13.573Z,31.97
2018-07-03T10:01:42.934Z,31.92
2018-07-03T10:04:12.244Z,32.54
2018-07-03T10:06:41.475Z,33.04
2018-07-03T10:09:11.852Z,33.60
2018-07-03T10:11:41.204Z,33.77
2018-07-03T10:14:10.522Z,33.94
2018-07-03T10:16:39.914Z,33.98
2018-07-03T10:19:09.303Z,34.30
2018-07-03T10:21:38.588Z,34.06
2018-07-03T10:24:07.995Z,34.75
2018-07-03T10:26:37.269Z,34.89
2018-07-03T10:29:06.660Z,34.60
2018-07-03T10:31:35.933Z,35.19
2018-07-03T10:34:05.305Z,35.52
2018-07-03T10:36:34.510Z,35.53
2018-07-03T10:39:08.267Z,34.17
2018-07-03T10:41:37.622Z,35.45
2018-07-03T10:44:06.905Z,34.61
2018-07-03T10:46:36.217Z,34.99
2018-07-03T10:49:05.481Z,35.32
2018-07-03T10:51:34.747Z,35.87
2018-07-03T10:54:04.152Z,35.75
2018-07-03T10:56:33.385Z,36.23
2018-07-03T10:59:02.714Z,35.94
2018-07-03T11:01:32.035Z,35.73
2018-07-03T11:04:01.325Z,36.53
2018-07-03T11:06:30.655Z,36.41
2018-07-03T11:09:00.061Z,34.89
2018-07-03T11:11:29.422Z,35.72
2018-07-03T11:13:58.739Z,34.26
2018-07-03T11:16:28.275Z,34.90
2018-07-03T11:18:57.570Z,35.67
2018-07-03T11:21:26.904Z,35.78
2018-07-03T11:23:56.283Z,35.97
2018-07-03T11:26:25.332Z,35.43
2018-07-03T11:28:55.007Z,35.52
2018-07-03T11:31:24.371Z,36.02
2018-07-03T11:33:53.758Z,36.39
2018-07-03T11:36:23.077Z,36.55
2018-07-03T11:38:52.361Z,36.24
2018-07-03T11:41:22.092Z,36.21
2018-07-03T11:43:51.490Z,35.58
2018-07-03T11:46:20.888Z,36.35
2018-07-03T11:48:50.197Z,36.31
2018-07-03T11:51:19.549Z,36.37
2018-07-03T11:53:48.883Z,35.86
2018-07-03T11:56:18.124Z,35.88
2018-07-03T11:58:47.515Z,36.31
2018-07-03T12:01:16.789Z,36.59
2018-07-03T12:03:46.265Z,35.97
2018-07-03T12:06:16.578Z,35.44
2018-07-03T12:08:45.894Z,36.08
2018-07-03T12:11:15.216Z,36.30
2018-07-03T12:13:44.489Z,36.37
2018-07-03T12:16:13.787Z,36.57
2018-07-03T12:18:48.126Z,36.39
2018-07-03T12:21:17.462Z,36.13
2018-07-03T12:23:46.798Z,36.10
2018-07-03T12:26:16.123Z,36.33
2018-07-03T12:28:45.402Z,36.43
2018-07-03T12:31:14.666Z,35.79
2018-07-03T12:33:43.944Z,34.13
2018-07-03T12:36:13.242Z,34.88
2018-07-03T12:38:42.505Z,34.92
2018-07-03T12:41:11.748Z,34.69
2018-07-03T12:43:41.039Z,35.06
2018-07-03T12:46:10.426Z,34.51
2018-07-03T12:48:40.156Z,34.82
2018-07-03T12:51:09.502Z,34.79
2018-07-03T12:53:38.785Z,35.41
2018-07-03T12:56:08.090Z,35.16
2018-07-03T12:58:37.472Z,35.28
2018-07-03T13:01:06.936Z,35.22
2018-07-03T13:03:36.208Z,35.18
2018-07-03T13:06:05.574Z,35.15
2018-07-03T13:08:34.877Z,35.30
2018-07-03T13:11:05.175Z,35.53
2018-07-03T13:13:34.733Z,35.95
2018-07-03T13:16:04.014Z,36.07
2018-07-03T13:18:33.507Z,36.23
2018-07-03T13:21:02.881Z,36.37
2018-07-03T13:23:32.317Z,36.65
2018-07-03T13:26:03.816Z,36.66
2018-07-03T13:28:33.189Z,35.79
2018-07-03T13:31:02.572Z,35.80
2018-07-03T13:33:31.875Z,35.89
2018-07-03T13:36:01.555Z,36.25
2018-07-03T13:38:30.967Z,36.10
2018-07-03T13:41:00.302Z,35.98
2018-07-03T13:43:29.649Z,36.12
2018-07-03T13:45:59.389Z,35.92
2018-07-03T13:48:29.016Z,35.70
2018-07-03T13:50:58.380Z,35.78
2018-07-03T13:53:27.717Z,35.80
2018-07-03T13:55:57.094Z,35.53
2018-07-03T13:58:26.626Z,35.62
2018-07-03T14:00:56.189Z,35.34
2018-07-03T14:03:25.742Z,35.51
2018-07-03T14:05:55.099Z,35.38
2018-07-03T14:08:24.617Z,35.36
2018-07-03T14:10:54.090Z,35.57
2018-07-03T14:13:23.345Z,35.52
2018-07-03T14:15:52.832Z,35.36
2018-07-03T14:18:25.012Z,35.52
2018-07-03T14:20:56.508Z,35.20
2018-07-03T14:23:26.088Z,35.09
2018-07-03T14:25:55.404Z,35.23
2018-07-03T14:28:24.495Z,35.30
2018-07-03T14:30:53.763Z,35.28
2018-07-03T14:33:23.168Z,35.00
2018-07-03T14:35:52.515Z,34.97
2018-07-03T14:38:21.865Z,33.27
2018-07-03T14:40:51.131Z,34.35
2018-07-03T14:43:20.489Z,34.17
2018-07-03T14:45:49.776Z,34.42
2018-07-03T14:48:19.102Z,34.36
2018-07-03T14:50:48.413Z,34.40
2018-07-03T14:53:17.754Z,34.23
2018-07-03T14:55:47.016Z,34.03
2018-07-03T14:58:16.307Z,33.79
2018-07-03T15:00:45.577Z,33.79
2018-07-03T15:03:14.878Z,33.82
2018-07-03T15:05:44.205Z,33.58
2018-07-03T15:08:13.456Z,33.88
2018-07-03T15:10:42.686Z,33.47
2018-07-03T15:13:12.043Z,33.65
2018-07-03T15:15:41.307Z,33.44
2018-07-03T15:18:13.037Z,33.35
2018-07-03T15:20:42.287Z,33.42
2018-07-03T15:23:11.646Z,33.38
2018-07-03T15:25:40.972Z,33.09
2018-07-03T15:28:10.315Z,33.10
2018-07-03T15:30:39.648Z,32.92
2018-07-03T15:33:09.035Z,32.96
2018-07-03T15:35:38.288Z,32.80
2018-07-03T15:38:07.714Z,33.00
2018-07-03T15:40:37.080Z,32.28
2018-07-03T15:43:06.383Z,32.25
2018-07-03T15:45:35.805Z,32.29
2018-07-03T15:48:05.383Z,32.09
2018-07-03T15:50:34.724Z,32.01
2018-07-03T15:53:04.211Z,32.12
2018-07-03T15:55:33.494Z,31.78
2018-07-03T15:58:02.759Z,31.63
2018-07-03T16:00:32.086Z,31.57
2018-07-03T16:03:18.530Z,31.49
2018-07-03T16:06:11.253Z,31.36
2018-07-03T16:08:58.339Z,31.40
2018-07-03T16:11:27.747Z,31.31
2018-07-03T16:13:56.861Z,31.29
2018-07-03T16:16:26.310Z,31.23
2018-07-03T16:19:00.849Z,30.98
2018-07-03T16:21:30.239Z,30.94
2018-07-03T16:23:59.605Z,30.94
2018-07-03T16:26:28.997Z,30.74
2018-07-03T16:28:58.437Z,30.83
2018-07-03T16:31:27.893Z,30.78
2018-07-03T16:33:57.933Z,30.67
2018-07-03T16:36:27.274Z,30.60
2018-07-03T16:38:56.768Z,30.45
2018-07-03T16:41:26.123Z,30.31
2018-07-03T16:43:55.647Z,30.21
2018-07-03T16:46:24.984Z,30.12
2018-07-03T16:48:54.460Z,30.15
2018-07-03T16:51:23.808Z,30.08
2018-07-03T16:53:53.558Z,30.04
2018-07-03T16:56:23.009Z,29.96
2018-07-03T16:58:52.914Z,29.88
2018-07-03T17:01:22.333Z,29.82
2018-07-03T17:03:51.781Z,29.76
2018-07-03T17:06:21.273Z,29.62
2018-07-03T17:08:50.706Z,29.59
2018-07-03T17:11:20.247Z,29.57
2018-07-03T17:13:49.939Z,29.58
2018-07-03T17:16:19.366Z,29.50
2018-07-03T17:18:53.928Z,29.46
2018-07-03T17:21:23.331Z,29.35
2018-07-03T17:23:52.709Z,29.33
2018-07-03T17:26:22.138Z,29.34
2018-07-03T17:28:51.570Z,29.31
2018-07-03T17:31:21.007Z,29.28
2018-07-03T17:33:50.401Z,29.23
2018-07-03T17:36:19.695Z,29.20
2018-07-03T17:38:49.005Z,29.16
2018-07-03T17:41:35.516Z,29.03
2018-07-03T17:44:22.557Z,28.97
2018-07-03T17:46:51.882Z,28.88
2018-07-03T17:49:20.981Z,28.89
2018-07-03T17:51:50.307Z,28.83
2018-07-03T17:54:19.827Z,28.78
2018-07-03T17:56:49.156Z,28.71
2018-07-03T17:59:18.581Z,28.63
2018-07-03T18:01:47.873Z,28.57
2018-07-03T18:04:21.163Z,28.61
2018-07-03T18:06:50.791Z,28.54
2018-07-03T18:09:20.084Z,28.51
2018-07-03T18:11:49.428Z,28.45
2018-07-03T18:14:18.745Z,28.41
2018-07-03T18:16:51.871Z,28.34
2018-07-03T18:19:26.272Z,28.29
2018-07-03T18:21:56.071Z,28.22
2018-07-03T18:24:26.178Z,28.15
2018-07-03T18:26:55.614Z,28.08
2018-07-03T18:29:25.013Z,28.06
2018-07-03T18:31:54.392Z,27.99
2018-07-03T18:34:23.767Z,27.96
2018-07-03T18:36:53.620Z,28.07
2018-07-03T18:39:22.844Z,27.95
2018-07-03T18:41:52.370Z,27.91
2018-07-03T18:44:21.755Z,27.84
2018-07-03T18:46:50.861Z,27.76
2018-07-03T18:49:20.342Z,27.78
2018-07-03T18:51:49.773Z,27.72
2018-07-03T18:54:19.172Z,27.62
2018-07-03T18:56:48.456Z,27.57
2018-07-03T18:59:17.874Z,27.46
2018-07-03T19:01:47.293Z,27.41
2018-07-03T19:04:16.595Z,27.35
2018-07-03T19:06:46.024Z,27.23
2018-07-03T19:09:15.336Z,27.15
2018-07-03T19:11:44.859Z,27.05
2018-07-03T19:14:13.979Z,27.00
2018-07-03T19:16:43.384Z,26.95
2018-07-03T19:19:12.695Z,26.90
2018-07-03T19:21:41.994Z,26.84
2018-07-03T19:24:11.145Z,26.76
2018-07-03T19:26:40.560Z,26.67
2018-07-03T19:29:09.967Z,26.57
2018-07-03T19:31:39.362Z,26.62
2018-07-03T19:34:08.705Z,26.47
2018-07-03T19:36:38.096Z,26.39
2018-07-03T19:39:09.805Z,26.35
2018-07-03T19:41:39.766Z,26.28
2018-07-03T19:44:09.138Z,26.28
2018-07-03T19:46:38.723Z,26.30
2018-07-03T19:49:07.900Z,26.26
2018-07-03T19:51:37.136Z,26.23
2018-07-03T19:54:06.443Z,26.21
2018-07-03T19:56:35.765Z,26.14
2018-07-03T19:59:05.454Z,26.15
2018-07-03T20:01:34.807Z,26.07
2018-07-03T20:04:04.221Z,26.06
2018-07-03T20:06:33.573Z,25.98
2018-07-03T20:09:02.957Z,25.97
2018-07-03T20:11:32.277Z,25.92
2018-07-03T20:14:01.690Z,25.92
2018-07-03T20:16:31.032Z,25.91
2018-07-03T20:19:00.558Z,25.80
2018-07-03T20:21:29.913Z,25.75
2018-07-03T20:23:59.503Z,25.70
2018-07-03T20:26:29.058Z,25.67
2018-07-03T20:28:58.586Z,25.61
2018-07-03T20:31:28.045Z,25.61
2018-07-03T20:33:57.393Z,25.64
2018-07-03T20:36:26.879Z,25.67
2018-07-03T20:38:56.319Z,25.54
2018-07-03T20:41:25.635Z,25.60
2018-07-03T20:43:55.035Z,25.64
2018-07-03T20:46:24.341Z,25.52
2018-07-03T20:48:53.606Z,25.43
2018-07-03T20:51:22.858Z,25.39
2018-07-03T20:53:52.161Z,25.38
2018-07-03T20:56:21.419Z,25.36
2018-07-03T20:58:51.012Z,25.41
2018-07-03T21:01:20.303Z,25.35
2018-07-03T21:03:49.753Z,25.34
2018-07-03T21:06:19.137Z,25.26
2018-07-03T21:08:48.515Z,25.23
2018-07-03T21:11:17.903Z,25.22
2018-07-03T21:13:47.411Z,24.96
2018-07-03T21:16:16.522Z,24.91
2018-07-03T21:18:45.843Z,24.86
2018-07-03T21:21:15.556Z,24.72
2018-07-03T21:23:44.816Z,24.60
2018-07-03T21:26:14.155Z,24.55
2018-07-03T21:28:43.480Z,24.47
2018-07-03T21:31:12.822Z,24.38
2018-07-03T21:33:42.168Z,24.38
2018-07-03T21:36:11.564Z,24.33
2018-07-03T21:38:40.899Z,24.34
2018-07-03T21:41:10.250Z,24.30
2018-07-03T21:43:39.786Z,24.29
2018-07-03T21:46:09.099Z,24.23
2018-07-03T21:48:38.391Z,24.24
2018-07-03T21:51:07.851Z,24.22
2018-07-03T21:53:37.250Z,24.20
2018-07-03T21:56:06.597Z,24.17
2018-07-03T21:58:36.002Z,24.09
2018-07-03T22:01:05.273Z,24.07
2018-07-03T22:03:34.674Z,24.03
2018-07-03T22:06:04.008Z,24.07
2018-07-03T22:08:33.367Z,24.05
2018-07-03T22:11:02.632Z,24.11
2018-07-03T22:13:31.993Z,24.03
2018-07-03T22:16:01.285Z,24.06
2018-07-03T22:18:30.633Z,24.13
2018-07-03T22:21:00.139Z,24.09
2018-07-03T22:23:29.456Z,24.21
2018-07-03T22:25:58.737Z,24.19
2018-07-03T22:28:28.107Z,24.13
2018-07-03T22:30:57.600Z,24.09
2018-07-03T22:33:27.121Z,24.03
2018-07-03T22:35:56.612Z,24.01
2018-07-03T22:38:25.959Z,24.00
2018-07-03T22:40:55.284Z,23.93
2018-07-03T22:43:24.647Z,23.95
2018-07-03T22:45:54.105Z,23.96
2018-07-03T22:48:24.403Z,23.82
2018-07-03T22:50:53.674Z,23.80
2018-07-03T22:53:22.915Z,23.72
2018-07-03T22:55:52.226Z,23.73
2018-07-03T22:58:21.612Z,23.77
2018-07-03T23:00:50.886Z,23.74
2018-07-03T23:03:20.019Z,23.74
2018-07-03T23:05:49.288Z,23.69
2018-07-03T23:08:19.160Z,23.71
2018-07-03T23:10:48.472Z,23.76
2018-07-03T23:13:18.782Z,23.81
2018-07-03T23:15:47.801Z,23.84
2018-07-03T23:18:17.243Z,23.79
2018-07-03T23:20:46.521Z,23.72
2018-07-03T23:23:15.840Z,23.72
2018-07-03T23:25:45.177Z,23.69
2018-07-03T23:28:14.487Z,23.69
2018-07-03T23:30:43.750Z,23.61
2018-07-03T23:33:13.053Z,23.65
2018-07-03T23:35:42.299Z,23.65
2018-07-03T23:38:11.609Z,23.66
2018-07-03T23:40:41.026Z,23.64
2018-07-03T23:43:10.248Z,23.60
2018-07-03T23:45:53.704Z,23.56
2018-07-03T23:48:40.299Z,23.53
2018-07-03T23:51:26.819Z,23.50
2018-07-03T23:54:13.435Z,23.52
2018-07-03T23:56:59.721Z,23.50
2018-07-03T23:59:46.204Z,23.48
